createdAt,value
2018-09-20T00:01:57.619Z,75.52
2018-09-20T00:04:25.783Z,76.00
2018-09-20T00:06:53.957Z,76.44
2018-09-20T00:09:22.101Z,76.27
2018-09-20T00:11:50.237Z,76.06
2018-09-20T00:14:19.046Z,75.74
2018-09-20T00:16:47.156Z,75.04
2018-09-20T00:19:15.334Z,75.21
2018-09-20T00:21:43.509Z,76.00
2018-09-20T00:24:11.678Z,76.02
2018-09-20T00:26:39.828Z,76.22
2018-09-20T00:29:08.023Z,76.05
2018-09-20T00:31:36.201Z,76.46
2018-09-20T00:34:04.351Z,75.99
2018-09-20T00:36:32.493Z,76.63
2018-09-20T00:39:00.664Z,76.19
2018-09-20T00:41:28.838Z,76.73
2018-09-20T00:43:57.029Z,76.37
2018-09-20T00:46:25.644Z,76.98
2018-09-20T00:48:55.535Z,76.37
2018-09-20T00:51:23.722Z,76.76
2018-09-20T00:53:51.874Z,76.23
2018-09-20T00:56:20.061Z,76.31
2018-09-20T00:58:48.251Z,76.48
2018-09-20T01:01:16.422Z,76.45
2018-09-20T01:03:44.591Z,76.62
2018-09-20T01:06:12.744Z,76.70
2018-09-20T01:08:40.923Z,76.69
2018-09-20T01:11:09.056Z,76.98
2018-09-20T01:13:37.214Z,77.28
2018-09-20T01:16:05.504Z,77.73
2018-09-20T01:18:33.632Z,77.49
2018-09-20T01:21:01.804Z,77.65
2018-09-20T01:23:29.958Z,77.95
2018-09-20T01:25:58.190Z,78.51
2018-09-20T01:28:26.308Z,78.35
2018-09-20T01:30:54.453Z,78.56
2018-09-20T01:33:22.572Z,79.59
2018-09-20T01:35:50.729Z,78.84
2018-09-20T01:38:18.844Z,80.00
2018-09-20T01:40:46.960Z,78.93
2018-09-20T01:43:15.102Z,78.99
2018-09-20T01:45:43.241Z,79.15
2018-09-20T01:48:11.402Z,79.16
2018-09-20T01:50:39.546Z,79.99
2018-09-20T01:53:07.777Z,80.03
2018-09-20T01:55:35.933Z,80.25
2018-09-20T01:58:04.093Z,79.79
2018-09-20T02:00:32.220Z,79.44
2018-09-20T02:03:00.368Z,79.68
2018-09-20T02:05:28.536Z,79.36
2018-09-20T02:07:56.754Z,80.13
2018-09-20T02:10:24.901Z,79.85
2018-09-20T02:12:53.044Z,80.19
2018-09-20T02:15:21.161Z,80.14
2018-09-20T02:17:49.312Z,80.40
2018-09-20T02:20:17.445Z,80.49
2018-09-20T02:22:45.546Z,81.10
2018-09-20T02:25:13.717Z,80.50
2018-09-20T02:27:41.873Z,80.71
2018-09-20T02:30:10.062Z,81.04
2018-09-20T02:32:38.185Z,81.09
2018-09-20T02:35:06.315Z,81.14
2018-09-20T02:37:34.418Z,81.53
2018-09-20T02:40:02.588Z,81.47
2018-09-20T02:42:30.727Z,81.98
2018-09-20T02:44:58.885Z,82.01
2018-09-20T02:47:27.026Z,81.41
2018-09-20T02:49:55.129Z,82.29
2018-09-20T02:52:23.423Z,82.32
2018-09-20T02:54:51.592Z,82.55
2018-09-20T02:57:19.711Z,83.06
2018-09-20T02:59:47.843Z,83.45
2018-09-20T03:02:15.965Z,82.96
2018-09-20T03:04:44.154Z,83.59
2018-09-20T03:07:12.336Z,83.60
2018-09-20T03:09:40.426Z,83.38
2018-09-20T03:12:08.546Z,83.89
2018-09-20T03:14:36.698Z,83.69
2018-09-20T03:17:04.932Z,83.89
2018-09-20T03:19:33.083Z,84.29
2018-09-20T03:22:01.256Z,84.10
2018-09-20T03:24:29.328Z,84.45
2018-09-20T03:26:57.462Z,84.50
2018-09-20T03:29:25.595Z,84.55
2018-09-20T03:31:53.723Z,84.80
2018-09-20T03:34:21.832Z,84.47
2018-09-20T03:36:49.956Z,85.28
2018-09-20T03:39:18.077Z,85.31
2018-09-20T03:41:46.221Z,84.69
2018-09-20T03:44:14.390Z,84.76
2018-09-20T03:46:42.518Z,85.04
2018-09-20T03:49:10.649Z,85.00
2018-09-20T03:51:38.744Z,85.16
2018-09-20T03:54:06.982Z,85.26
2018-09-20T03:56:35.121Z,85.44
2018-09-20T03:59:03.260Z,86.21
2018-09-20T04:01:31.405Z,85.53
2018-09-20T04:03:59.562Z,85.59
2018-09-20T04:06:27.705Z,85.68
2018-09-20T04:08:55.873Z,85.67
2018-09-20T04:11:24.008Z,85.66
2018-09-20T04:13:52.161Z,85.58
2018-09-20T04:16:20.319Z,86.21
2018-09-20T04:18:48.465Z,86.57
2018-09-20T04:21:23.157Z,86.82
2018-09-20T04:23:51.307Z,86.94
2018-09-20T04:26:19.421Z,87.05
2018-09-20T04:28:47.580Z,87.28
2018-09-20T04:31:15.737Z,87.13
2018-09-20T04:33:43.883Z,87.28
2018-09-20T04:36:12.011Z,87.11
2018-09-20T04:38:40.125Z,86.84
2018-09-20T04:41:08.328Z,87.63
2018-09-20T04:43:36.422Z,87.57
2018-09-20T04:46:04.725Z,87.20
2018-09-20T04:48:34.567Z,87.55
2018-09-20T04:51:02.731Z,87.65
2018-09-20T04:53:30.917Z,88.00
2018-09-20T04:55:58.965Z,88.04
2018-09-20T04:58:27.095Z,88.16
2018-09-20T05:00:55.351Z,87.96
2018-09-20T05:03:23.566Z,87.82
2018-09-20T05:05:51.729Z,88.00
2018-09-20T05:08:19.898Z,88.36
2018-09-20T05:10:48.094Z,88.34
2018-09-20T05:13:16.743Z,87.81
2018-09-20T05:15:44.868Z,88.04
2018-09-20T05:18:13.317Z,88.13
2018-09-20T05:20:41.529Z,88.02
2018-09-20T05:23:09.670Z,88.03
2018-09-20T05:25:37.916Z,87.99
2018-09-20T05:28:06.059Z,87.55
2018-09-20T05:30:34.180Z,87.93
2018-09-20T05:33:02.318Z,87.98
2018-09-20T05:35:30.515Z,88.27
2018-09-20T05:37:58.649Z,88.30
2018-09-20T05:40:26.819Z,87.89
2018-09-20T05:42:54.973Z,88.15
2018-09-20T05:45:23.147Z,88.60
2018-09-20T05:47:51.318Z,88.01
2018-09-20T05:50:19.449Z,88.10
2018-09-20T05:52:47.551Z,87.78
2018-09-20T05:55:15.700Z,87.94
2018-09-20T05:57:43.843Z,88.11
2018-09-20T06:00:11.960Z,88.01
2018-09-20T06:02:40.061Z,87.45
2018-09-20T06:05:08.233Z,87.20
2018-09-20T06:07:36.369Z,86.95
2018-09-20T06:10:04.530Z,86.93
2018-09-20T06:12:32.645Z,86.82
2018-09-20T06:15:00.749Z,86.62
2018-09-20T06:17:28.885Z,86.01
2018-09-20T06:19:57.002Z,85.54
2018-09-20T06:22:25.164Z,85.55
2018-09-20T06:24:53.266Z,85.22
2018-09-20T06:27:21.380Z,85.48
2018-09-20T06:29:49.513Z,85.63
2018-09-20T06:32:17.624Z,85.36
2018-09-20T06:34:45.748Z,84.78
2018-09-20T06:37:13.894Z,84.94
2018-09-20T06:39:42.002Z,83.98
2018-09-20T06:42:10.158Z,84.37
2018-09-20T06:44:38.281Z,83.68
2018-09-20T06:47:06.433Z,83.40
2018-09-20T06:49:34.580Z,82.81
2018-09-20T06:52:02.746Z,82.21
2018-09-20T06:54:30.868Z,81.64
2018-09-20T06:56:59.046Z,81.78
2018-09-20T06:59:27.207Z,81.87
2018-09-20T07:01:55.362Z,81.63
2018-09-20T07:04:23.483Z,81.01
2018-09-20T07:06:51.629Z,80.98
2018-09-20T07:09:19.790Z,80.22
2018-09-20T07:11:47.880Z,80.09
2018-09-20T07:14:16.037Z,80.17
2018-09-20T07:16:44.150Z,79.72
2018-09-20T07:19:12.271Z,79.44
2018-09-20T07:21:40.392Z,79.46
2018-09-20T07:24:08.501Z,78.93
2018-09-20T07:26:36.648Z,78.44
2018-09-20T07:29:04.812Z,78.59
2018-09-20T07:31:32.957Z,77.40
2018-09-20T07:34:01.089Z,78.29
2018-09-20T07:36:29.299Z,77.63
2018-09-20T07:38:57.490Z,78.06
2018-09-20T07:41:25.629Z,76.95
2018-09-20T07:43:53.800Z,76.61
2018-09-20T07:46:21.925Z,76.57
2018-09-20T07:48:50.110Z,76.25
2018-09-20T07:51:18.228Z,75.72
2018-09-20T07:53:46.468Z,75.75
2018-09-20T07:56:14.609Z,74.62
2018-09-20T07:58:42.752Z,74.45
2018-09-20T08:01:10.869Z,75.18
2018-09-20T08:03:39.161Z,74.91
2018-09-20T08:06:07.312Z,73.92
2018-09-20T08:08:35.442Z,73.57
2018-09-20T08:11:03.583Z,74.44
2018-09-20T08:13:31.717Z,73.84
2018-09-20T08:15:59.956Z,73.71
2018-09-20T08:18:28.082Z,73.08
2018-09-20T08:20:56.212Z,72.61
2018-09-20T08:23:24.363Z,71.92
2018-09-20T08:25:52.505Z,71.94
2018-09-20T08:28:20.641Z,71.94
2018-09-20T08:30:48.740Z,71.00
2018-09-20T08:33:16.871Z,70.37
2018-09-20T08:35:45.012Z,70.08
2018-09-20T08:38:13.159Z,70.17
2018-09-20T08:40:41.315Z,69.84
2018-09-20T08:43:09.441Z,69.71
2018-09-20T08:45:37.576Z,69.77
2018-09-20T08:48:05.709Z,69.37
2018-09-20T08:50:33.853Z,70.60
2018-09-20T08:53:02.009Z,71.08
2018-09-20T08:55:30.102Z,71.40
2018-09-20T08:57:58.214Z,70.81
2018-09-20T09:00:27.310Z,71.60
2018-09-20T09:02:55.514Z,70.77
2018-09-20T09:05:23.651Z,70.67
2018-09-20T09:07:51.770Z,71.43
2018-09-20T09:10:19.872Z,71.13
2018-09-20T09:12:48.029Z,71.91
2018-09-20T09:15:16.206Z,70.92
2018-09-20T09:17:44.331Z,71.24
2018-09-20T09:20:12.516Z,70.63
2018-09-20T09:22:40.638Z,71.04
2018-09-20T09:25:08.780Z,70.83
2018-09-20T09:27:36.946Z,70.88
2018-09-20T09:30:05.240Z,70.55
2018-09-20T09:32:33.366Z,70.67
2018-09-20T09:35:01.540Z,70.30
2018-09-20T09:37:29.700Z,70.04
2018-09-20T09:39:57.873Z,70.17
2018-09-20T09:42:26.049Z,69.88
2018-09-20T09:44:54.168Z,69.95
2018-09-20T09:47:22.260Z,70.87
2018-09-20T09:49:50.385Z,70.34
2018-09-20T09:52:18.476Z,70.38
2018-09-20T09:54:46.636Z,69.09
2018-09-20T09:57:14.743Z,69.21
2018-09-20T09:59:42.928Z,68.88
2018-09-20T10:02:11.004Z,68.69
2018-09-20T10:04:39.176Z,69.32
2018-09-20T10:07:07.365Z,68.56
2018-09-20T10:09:35.460Z,68.89
2018-09-20T10:12:03.641Z,69.09
2018-09-20T10:14:31.850Z,69.20
2018-09-20T10:16:59.984Z,68.57
2018-09-20T10:19:28.120Z,69.10
2018-09-20T10:21:56.282Z,69.55
2018-09-20T10:24:24.434Z,68.98
2018-09-20T10:26:52.617Z,69.53
2018-09-20T10:29:20.768Z,67.98
2018-09-20T10:31:48.913Z,68.24
2018-09-20T10:34:17.041Z,67.75
2018-09-20T10:36:45.182Z,66.88
2018-09-20T10:39:14.264Z,67.80
2018-09-20T10:41:42.773Z,67.07
2018-09-20T10:44:10.956Z,66.28
2018-09-20T10:46:39.103Z,66.38
2018-09-20T10:49:07.305Z,66.54
2018-09-20T10:51:35.884Z,66.16
2018-09-20T10:54:04.030Z,66.08
2018-09-20T10:56:32.240Z,65.81
2018-09-20T10:59:00.393Z,64.53
2018-09-20T11:01:28.553Z,64.60
2018-09-20T11:03:56.697Z,64.86
2018-09-20T11:06:24.873Z,65.40
2018-09-20T11:08:53.012Z,64.79
2018-09-20T11:11:21.132Z,65.21
2018-09-20T11:13:49.305Z,64.13
2018-09-20T11:16:17.447Z,63.81
2018-09-20T11:18:45.566Z,63.80
2018-09-20T11:21:13.717Z,62.98
2018-09-20T11:23:42.822Z,62.65
2018-09-20T11:26:10.984Z,62.97
2018-09-20T11:28:39.133Z,63.17
2018-09-20T11:32:04.818Z,62.46
2018-09-20T11:34:33.006Z,62.64
2018-09-20T11:37:01.123Z,63.06
2018-09-20T11:39:29.298Z,62.65
2018-09-20T11:41:57.449Z,61.72
2018-09-20T11:44:25.609Z,62.14
2018-09-20T11:46:53.764Z,62.28
2018-09-20T11:49:21.968Z,63.00
2018-09-20T11:51:50.105Z,62.64
2018-09-20T11:54:18.259Z,62.19
2018-09-20T11:56:46.381Z,62.38
2018-09-20T11:59:14.551Z,62.38
2018-09-20T12:01:42.761Z,62.49
2018-09-20T12:04:10.876Z,62.63
2018-09-20T12:06:38.991Z,62.52
2018-09-20T12:09:07.170Z,63.00
2018-09-20T12:11:35.313Z,63.10
2018-09-20T12:14:03.476Z,62.02
2018-09-20T12:16:31.659Z,62.33
2018-09-20T12:18:59.863Z,63.24
2018-09-20T12:21:28.067Z,61.82
2018-09-20T12:23:56.203Z,62.73
2018-09-20T12:26:24.338Z,62.62
2018-09-20T12:28:52.485Z,62.47
2018-09-20T12:31:20.682Z,62.67
2018-09-20T12:33:48.797Z,62.17
2018-09-20T12:36:17.258Z,62.73
2018-09-20T12:38:45.961Z,62.19
2018-09-20T12:41:14.088Z,62.39
2018-09-20T12:43:43.377Z,62.04
2018-09-20T12:46:11.525Z,61.60
2018-09-20T12:48:39.670Z,61.64
2018-09-20T12:51:08.013Z,62.82
2018-09-20T12:53:36.163Z,62.34
2018-09-20T12:56:04.322Z,62.40
2018-09-20T12:58:37.830Z,62.55
2018-09-20T13:01:06.022Z,62.14
2018-09-20T13:03:34.147Z,62.47
2018-09-20T13:06:02.330Z,62.03
2018-09-20T13:08:30.525Z,62.67
2018-09-20T13:10:58.752Z,62.42
2018-09-20T13:13:26.892Z,62.18
2018-09-20T13:15:54.999Z,62.24
2018-09-20T13:18:23.140Z,62.27
2018-09-20T13:20:51.267Z,61.42
2018-09-20T13:23:19.409Z,61.43
2018-09-20T13:25:47.588Z,61.08
2018-09-20T13:28:15.745Z,60.59
2018-09-20T13:30:43.914Z,60.69
2018-09-20T13:33:12.086Z,59.14
2018-09-20T13:35:40.309Z,58.40
2018-09-20T13:38:08.492Z,59.65
2018-09-20T13:40:36.613Z,59.31
2018-09-20T13:43:04.742Z,59.83
2018-09-20T13:45:32.939Z,60.42
2018-09-20T13:48:01.110Z,60.36
2018-09-20T13:50:29.254Z,57.89
2018-09-20T13:52:57.392Z,57.39
2018-09-20T13:55:25.521Z,57.30
2018-09-20T13:57:53.673Z,57.10
2018-09-20T14:00:21.845Z,57.59
2018-09-20T14:02:49.973Z,57.30
2018-09-20T14:05:18.106Z,56.91
2018-09-20T14:07:46.290Z,57.03
2018-09-20T14:10:14.441Z,56.59
2018-09-20T14:12:42.633Z,56.87
2018-09-20T14:15:10.787Z,56.40
2018-09-20T14:17:38.969Z,56.61
2018-09-20T14:20:07.152Z,56.88
2018-09-20T14:22:35.288Z,56.75
2018-09-20T14:25:03.461Z,57.06
2018-09-20T14:27:31.616Z,57.10
2018-09-20T14:29:59.781Z,56.19
2018-09-20T14:32:27.901Z,56.17
2018-09-20T14:34:56.095Z,56.25
2018-09-20T14:37:24.279Z,56.78
2018-09-20T14:39:52.472Z,56.12
2018-09-20T14:42:20.613Z,56.21
2018-09-20T14:44:48.749Z,57.44
2018-09-20T14:47:16.927Z,57.23
2018-09-20T14:49:45.044Z,57.84
2018-09-20T14:52:13.177Z,57.58
2018-09-20T14:54:41.318Z,57.03
2018-09-20T14:57:09.436Z,57.59
2018-09-20T14:59:37.604Z,57.45
2018-09-20T15:02:05.811Z,57.00
2018-09-20T15:04:33.987Z,57.62
2018-09-20T15:07:02.113Z,57.71
2018-09-20T15:09:30.299Z,57.32
2018-09-20T15:11:58.410Z,57.42
2018-09-20T15:14:26.586Z,57.19
2018-09-20T15:16:54.742Z,57.32
2018-09-20T15:19:22.869Z,58.01
2018-09-20T15:21:51.000Z,57.61
2018-09-20T15:24:19.128Z,57.92
2018-09-20T15:26:47.245Z,57.08
2018-09-20T15:29:15.406Z,58.16
2018-09-20T15:31:43.557Z,58.27
2018-09-20T15:34:11.733Z,57.78
2018-09-20T15:36:39.913Z,58.29
2018-09-20T15:39:09.919Z,57.84
2018-09-20T15:41:38.097Z,58.35
2018-09-20T15:44:06.261Z,58.12
2018-09-20T15:46:34.416Z,57.27
2018-09-20T15:49:02.731Z,57.49
2018-09-20T15:51:30.857Z,58.06
2018-09-20T15:53:59.003Z,57.96
2018-09-20T15:56:27.170Z,58.07
2018-09-20T15:58:55.337Z,58.47
2018-09-20T16:01:23.509Z,58.42
2018-09-20T16:03:51.645Z,58.87
2018-09-20T16:06:21.284Z,59.18
2018-09-20T16:08:49.558Z,58.02
2018-09-20T16:11:17.729Z,57.89
2018-09-20T16:13:46.346Z,58.30
2018-09-20T16:16:14.721Z,58.37
2018-09-20T16:18:42.864Z,58.39
2018-09-20T16:21:13.726Z,59.25
2018-09-20T16:30:12.455Z,59.02
2018-09-20T16:35:08.564Z,59.33
2018-09-20T16:37:51.426Z,60.15
2018-09-20T16:40:21.386Z,61.77
2018-09-20T16:42:51.032Z,61.58
2018-09-20T16:45:19.212Z,62.33
2018-09-20T16:47:47.362Z,61.76
2018-09-20T16:50:15.523Z,62.66
2018-09-20T16:52:43.756Z,62.97
2018-09-20T16:55:11.912Z,63.18
2018-09-20T16:57:40.149Z,62.48
2018-09-20T17:00:10.502Z,63.19
2018-09-20T17:02:41.896Z,63.49
2018-09-20T17:05:10.716Z,64.02
2018-09-20T17:07:38.912Z,63.86
2018-09-20T17:10:07.160Z,66.21
2018-09-20T17:12:35.471Z,65.91
2018-09-20T17:15:03.836Z,65.09
2018-09-20T17:17:32.089Z,65.85
2018-09-20T17:20:00.345Z,67.06
2018-09-20T17:22:28.482Z,66.04
2018-09-20T17:24:56.636Z,67.02
2018-09-20T17:27:25.324Z,67.01
2018-09-20T17:29:53.472Z,67.56
2018-09-20T17:32:21.617Z,67.56
2018-09-20T17:34:49.878Z,66.66
2018-09-20T17:37:19.094Z,68.11
2018-09-20T17:39:48.070Z,67.91
2018-09-20T17:42:16.722Z,68.31
2018-09-20T17:44:44.861Z,68.40
2018-09-20T17:47:13.112Z,69.26
2018-09-20T17:49:41.262Z,69.43
2018-09-20T17:52:09.813Z,69.69
2018-09-20T17:54:38.281Z,69.21
2018-09-20T17:57:06.969Z,69.97
2018-09-20T17:59:35.140Z,69.53
2018-09-20T18:02:03.296Z,70.18
2018-09-20T18:04:31.453Z,69.84
2018-09-20T18:06:59.581Z,70.86
2018-09-20T18:09:27.776Z,70.84
2018-09-20T18:11:55.919Z,71.18
2018-09-20T18:14:24.046Z,71.03
2018-09-20T18:16:52.180Z,71.49
2018-09-20T18:19:20.304Z,71.53
2018-09-20T18:21:48.449Z,71.72
2018-09-20T18:24:16.628Z,72.69
2018-09-20T18:26:44.744Z,72.41
2018-09-20T18:29:12.896Z,72.67
2018-09-20T18:31:41.037Z,72.36
2018-09-20T18:34:09.218Z,72.84
2018-09-20T18:36:37.342Z,72.73
2018-09-20T18:39:08.402Z,73.02
2018-09-20T18:41:36.553Z,73.37
2018-09-20T18:44:04.691Z,73.64
2018-09-20T18:46:32.868Z,74.19
2018-09-20T18:49:01.050Z,74.08
2018-09-20T18:51:29.181Z,73.36
2018-09-20T18:53:57.333Z,73.99
2018-09-20T18:56:25.683Z,74.37
2018-09-20T18:58:53.836Z,74.06
2018-09-20T19:01:21.943Z,73.95
2018-09-20T19:03:50.095Z,73.84
2018-09-20T19:06:18.243Z,74.00
2018-09-20T19:08:46.404Z,74.41
2018-09-20T19:11:14.546Z,74.40
2018-09-20T19:13:42.721Z,74.93
2018-09-20T19:16:10.842Z,74.36
2018-09-20T19:18:39.132Z,75.41
2018-09-20T19:21:07.297Z,76.10
2018-09-20T19:23:35.639Z,75.87
2018-09-20T19:26:03.777Z,76.58
2018-09-20T19:28:32.017Z,76.92
2018-09-20T19:31:00.192Z,76.54
2018-09-20T19:33:28.346Z,76.97
2018-09-20T19:35:56.461Z,76.71
2018-09-20T19:38:24.619Z,75.64
2018-09-20T19:40:52.736Z,76.79
2018-09-20T19:43:20.920Z,76.85
2018-09-20T19:45:49.103Z,77.67
2018-09-20T19:48:17.284Z,77.58
2018-09-20T19:50:45.413Z,77.95
2018-09-20T19:53:13.559Z,77.65
2018-09-20T19:55:41.669Z,77.63
2018-09-20T19:58:09.785Z,77.26
2018-09-20T20:00:38.025Z,77.46
2018-09-20T20:03:06.255Z,77.42
2018-09-20T20:05:34.405Z,77.65
2018-09-20T20:08:02.550Z,77.41
2018-09-20T20:10:30.723Z,78.64
2018-09-20T20:12:58.995Z,78.67
2018-09-20T20:15:27.147Z,78.37
2018-09-20T20:17:55.256Z,77.91
2018-09-20T20:20:23.485Z,77.68
2018-09-20T20:22:51.593Z,77.74
2018-09-20T20:25:19.726Z,77.40
2018-09-20T20:27:47.896Z,77.13
2018-09-20T20:30:16.065Z,76.95
2018-09-20T20:32:44.229Z,77.30
2018-09-20T20:35:12.369Z,76.81
2018-09-20T20:37:40.625Z,77.21
2018-09-20T20:40:08.742Z,76.60
2018-09-20T20:42:36.899Z,76.60
2018-09-20T20:45:05.035Z,77.10
2018-09-20T20:47:33.172Z,76.10
2018-09-20T20:50:01.268Z,76.59
2018-09-20T20:52:29.393Z,76.54
2018-09-20T20:54:57.511Z,76.03
2018-09-20T20:57:25.668Z,76.16
2018-09-20T20:59:53.818Z,76.88
2018-09-20T21:02:21.943Z,76.78
2018-09-20T21:04:50.061Z,76.13
2018-09-20T21:07:18.232Z,74.08
2018-09-20T21:09:46.387Z,74.89
2018-09-20T21:12:14.523Z,75.26
2018-09-20T21:14:42.650Z,74.94
2018-09-20T21:17:10.755Z,75.52
2018-09-20T21:19:38.884Z,74.02
2018-09-20T21:22:07.054Z,74.27
2018-09-20T21:24:35.340Z,74.81
2018-09-20T21:27:03.469Z,74.77
2018-09-20T21:29:31.615Z,75.56
2018-09-20T21:31:59.746Z,75.56
2018-09-20T21:34:27.850Z,75.83
2018-09-20T21:36:55.966Z,75.99
2018-09-20T21:39:24.122Z,75.48
2018-09-20T21:41:52.245Z,74.59
2018-09-20T21:44:20.394Z,75.25
2018-09-20T21:46:48.496Z,75.55
2018-09-20T21:49:16.626Z,74.46
2018-09-20T21:51:44.754Z,72.84
2018-09-20T21:54:12.933Z,71.76
2018-09-20T21:56:41.039Z,72.09
2018-09-20T21:59:09.134Z,71.49
2018-09-20T22:01:42.640Z,70.74
2018-09-20T22:04:10.804Z,71.70
2018-09-20T22:06:39.020Z,71.10
2018-09-20T22:09:09.128Z,71.16
2018-09-20T22:11:37.760Z,71.32
2018-09-20T22:14:06.033Z,70.93
2018-09-20T22:16:40.391Z,72.01
2018-09-20T22:19:08.554Z,72.09
2018-09-20T22:21:36.695Z,72.28
2018-09-20T22:24:04.825Z,71.39
2018-09-20T22:26:32.949Z,71.51
2018-09-20T22:29:01.061Z,72.09
2018-09-20T22:31:29.182Z,72.10
2018-09-20T22:33:57.317Z,71.48
2018-09-20T22:36:25.441Z,71.82
2018-09-20T22:38:53.541Z,72.90
2018-09-20T22:41:21.656Z,73.50
2018-09-20T22:43:49.785Z,73.93
2018-09-20T22:46:17.910Z,74.69
2018-09-20T22:48:46.036Z,74.29
2018-09-20T22:51:14.226Z,74.79
2018-09-20T22:53:43.293Z,74.53
2018-09-20T22:56:11.453Z,75.35
2018-09-20T22:58:39.604Z,75.05
2018-09-20T23:01:07.815Z,76.00
2018-09-20T23:03:35.952Z,76.10
2018-09-20T23:06:04.074Z,75.23
2018-09-20T23:08:32.198Z,74.83
2018-09-20T23:11:00.316Z,74.73
2018-09-20T23:13:28.428Z,73.90
2018-09-20T23:15:56.564Z,73.60
2018-09-20T23:18:24.679Z,72.74
2018-09-20T23:20:52.845Z,74.22
2018-09-20T23:23:20.980Z,74.02
2018-09-20T23:25:49.125Z,73.34
2018-09-20T23:28:17.280Z,73.60
2018-09-20T23:30:45.456Z,73.88
2018-09-20T23:33:13.555Z,72.97
2018-09-20T23:35:41.732Z,73.82
2018-09-20T23:38:09.870Z,73.33
2018-09-20T23:40:37.974Z,73.69
2018-09-20T23:43:06.104Z,73.50
2018-09-20T23:45:34.224Z,73.34
2018-09-20T23:48:02.389Z,74.24
2018-09-20T23:50:30.529Z,73.64
2018-09-20T23:52:58.658Z,73.08
2018-09-20T23:55:26.782Z,72.73
2018-09-20T23:57:54.944Z,72.89
